sensor_id;sensor_type;location;lat;lon;timestamp;pressure;altitude;pressure_sealevel;temperature;humidity
74881;BME280;63427;49.654;6.596;2023-08-12T00:00:40;99962.67;;;24.60;45.57
74881;BME280;63427;49.654;6.596;2023-08-12T00:03:05;99966.22;;;24.78;45.52
74881;BME280;63427;49.654;6.596;2023-08-12T00:05:31;99973.98;;;24.85;45.16
74881;BME280;63427;49.654;6.596;2023-08-12T00:07:56;99979.65;;;24.55;44.44
74881;BME280;63427;49.654;6.596;2023-08-12T00:10:21;99981.18;;;24.59;44.16
74881;BME280;63427;49.654;6.596;2023-08-12T00:12:46;99971.99;;;24.80;43.56
74881;BME280;63427;49.654;6.596;2023-08-12T00:15:12;99977.22;;;24.37;43.62
74881;BME280;63427;49.654;6.596;2023-08-12T00:17:37;99978.03;;;24.34;44.16
74881;BME280;63427;49.654;6.596;2023-08-12T00:20:02;99975.49;;;24.38;44.78
74881;BME280;63427;49.654;6.596;2023-08-12T00:22:27;99975.65;;;24.63;44.16
74881;BME280;63427;49.654;6.596;2023-08-12T00:24:52;99973.70;;;24.68;43.64
74881;BME280;63427;49.654;6.596;2023-08-12T00:27:18;99977.69;;;24.56;43.95
74881;BME280;63427;49.654;6.596;2023-08-12T00:29:43;99972.04;;;24.53;44.41
74881;BME280;63427;49.654;6.596;2023-08-12T00:32:09;99968.91;;;24.58;43.01
74881;BME280;63427;49.654;6.596;2023-08-12T00:34:34;99968.37;;;24.52;43.93
74881;BME280;63427;49.654;6.596;2023-08-12T00:36:58;99969.14;;;24.67;42.58
74881;BME280;63427;49.654;6.596;2023-08-12T00:39:23;99961.10;;;24.56;44.09
74881;BME280;63427;49.654;6.596;2023-08-12T00:41:49;99970.15;;;24.48;43.92
74881;BME280;63427;49.654;6.596;2023-08-12T00:44:14;99968.69;;;24.70;44.88
74881;BME280;63427;49.654;6.596;2023-08-12T00:46:41;99956.73;;;24.48;45.03
74881;BME280;63427;49.654;6.596;2023-08-12T00:49:04;99950.60;;;24.41;45.52
74881;BME280;63427;49.654;6.596;2023-08-12T00:51:30;99952.20;;;24.19;44.44
74881;BME280;63427;49.654;6.596;2023-08-12T00:53:57;99951.71;;;24.72;43.41
74881;BME280;63427;49.654;6.596;2023-08-12T00:56:21;99948.62;;;24.73;44.99
74881;BME280;63427;49.654;6.596;2023-08-12T00:58:45;99939.67;;;24.51;44.95
74881;BME280;63427;49.654;6.596;2023-08-12T01:01:11;99933.25;;;24.86;45.06
74881;BME280;63427;49.654;6.596;2023-08-12T01:03:35;99925.43;;;24.29;46.00
74881;BME280;63427;49.654;6.596;2023-08-12T01:06:01;99921.02;;;24.23;46.04
74881;BME280;63427;49.654;6.596;2023-08-12T01:08:30;99920.73;;;24.65;45.66
74881;BME280;63427;49.654;6.596;2023-08-12T01:10:58;99919.88;;;24.21;43.90
74881;BME280;63427;49.654;6.596;2023-08-12T01:13:24;99925.49;;;24.26;43.98
74881;BME280;63427;49.654;6.596;2023-08-12T01:15:44;99928.14;;;24.52;43.69
74881;BME280;63427;49.654;6.596;2023-08-12T01:18:07;99929.56;;;24.39;45.17
74881;BME280;63427;49.654;6.596;2023-08-12T01:20:33;99928.09;;;24.57;45.12
74881;BME280;63427;49.654;6.596;2023-08-12T01:25:22;99923.61;;;24.27;44.68
74881;BME280;63427;49.654;6.596;2023-08-12T01:27:47;99923.81;;;24.35;43.25
74881;BME280;63427;49.654;6.596;2023-08-12T01:30:12;99924.59;;;24.52;42.66
74881;BME280;63427;49.654;6.596;2023-08-12T01:32:41;99928.78;;;24.63;44.66
74881;BME280;63427;49.654;6.596;2023-08-12T01:35:06;99933.35;;;24.39;45.24
74881;BME280;63427;49.654;6.596;2023-08-12T01:37:29;99936.86;;;24.16;45.40
74881;BME280;63427;49.654;6.596;2023-08-12T01:39:53;99934.56;;;24.41;43.99
74881;BME280;63427;49.654;6.596;2023-08-12T01:42:18;99933.32;;;24.43;44.80
74881;BME280;63427;49.654;6.596;2023-08-12T01:44:43;99934.88;;;24.16;44.08
74881;BME280;63427;49.654;6.596;2023-08-12T01:47:09;99936.91;;;24.32;44.14
74881;BME280;63427;49.654;6.596;2023-08-12T01:49:33;99935.55;;;24.08;44.11
74881;BME280;63427;49.654;6.596;2023-08-12T01:51:59;99933.78;;;24.27;43.49
74881;BME280;63427;49.654;6.596;2023-08-12T01:54:24;99934.83;;;24.27;43.68
74881;BME280;63427;49.654;6.596;2023-08-12T01:56:49;99931.82;;;23.99;44.28
74881;BME280;63427;49.654;6.596;2023-08-12T01:59:14;99927.95;;;23.93;43.81
74881;BME280;63427;49.654;6.596;2023-08-12T02:01:39;99919.92;;;23.83;43.49
74881;BME280;63427;49.654;6.596;2023-08-12T02:04:04;99917.08;;;24.00;44.64
74881;BME280;63427;49.654;6.596;2023-08-12T02:06:29;99918.23;;;23.93;44.27
74881;BME280;63427;49.654;6.596;2023-08-12T02:08:54;99915.62;;;24.20;42.25
74881;BME280;63427;49.654;6.596;2023-08-12T02:11:19;99913.28;;;23.62;43.53
74881;BME280;63427;49.654;6.596;2023-08-12T02:13:44;99912.61;;;23.57;44.17
74881;BME280;63427;49.654;6.596;2023-08-12T02:16:10;99912.69;;;23.93;44.70
74881;BME280;63427;49.654;6.596;2023-08-12T02:18:35;99903.54;;;23.80;44.28
74881;BME280;63427;49.654;6.596;2023-08-12T02:21:00;99895.61;;;23.50;44.21
74881;BME280;63427;49.654;6.596;2023-08-12T02:23:25;99891.15;;;23.50;43.77
74881;BME280;63427;49.654;6.596;2023-08-12T02:25:52;99888.74;;;23.74;43.14
74881;BME280;63427;49.654;6.596;2023-08-12T02:28:15;99883.80;;;23.38;44.24
74881;BME280;63427;49.654;6.596;2023-08-12T02:30:42;99880.69;;;23.59;43.48
74881;BME280;63427;49.654;6.596;2023-08-12T02:33:05;99879.23;;;23.48;43.40
74881;BME280;63427;49.654;6.596;2023-08-12T02:35:32;99874.63;;;23.22;43.81
74881;BME280;63427;49.654;6.596;2023-08-12T02:37:56;99868.28;;;23.13;43.92
74881;BME280;63427;49.654;6.596;2023-08-12T02:40:21;99867.96;;;23.38;43.42
74881;BME280;63427;49.654;6.596;2023-08-12T02:42:46;99870.07;;;23.46;44.08
74881;BME280;63427;49.654;6.596;2023-08-12T02:45:11;99866.23;;;23.43;44.46
74881;BME280;63427;49.654;6.596;2023-08-12T02:47:36;99865.32;;;23.31;44.32
74881;BME280;63427;49.654;6.596;2023-08-12T02:50:02;99864.24;;;22.99;43.81
74881;BME280;63427;49.654;6.596;2023-08-12T02:52:27;99864.27;;;22.92;44.10
74881;BME280;63427;49.654;6.596;2023-08-12T02:54:52;99855.29;;;22.98;44.99
74881;BME280;63427;49.654;6.596;2023-08-12T02:57:17;99856.17;;;22.91;44.94
74881;BME280;63427;49.654;6.596;2023-08-12T02:59:42;99855.53;;;22.90;45.18
74881;BME280;63427;49.654;6.596;2023-08-12T03:02:08;99853.53;;;22.75;45.04
74881;BME280;63427;49.654;6.596;2023-08-12T03:04:33;99852.46;;;22.78;43.97
74881;BME280;63427;49.654;6.596;2023-08-12T03:06:58;99850.58;;;22.77;44.50
74881;BME280;63427;49.654;6.596;2023-08-12T03:09:23;99842.37;;;22.70;45.00
74881;BME280;63427;49.654;6.596;2023-08-12T03:11:48;99838.70;;;22.47;44.59
74881;BME280;63427;49.654;6.596;2023-08-12T03:14:13;99832.06;;;22.59;45.34
74881;BME280;63427;49.654;6.596;2023-08-12T03:16:38;99831.93;;;22.62;45.69
74881;BME280;63427;49.654;6.596;2023-08-12T03:19:04;99829.19;;;22.62;45.17
74881;BME280;63427;49.654;6.596;2023-08-12T03:21:29;99824.43;;;22.25;45.26
74881;BME280;63427;49.654;6.596;2023-08-12T03:23:54;99823.92;;;22.41;44.94
74881;BME280;63427;49.654;6.596;2023-08-12T03:26:19;99823.92;;;22.46;44.59
74881;BME280;63427;49.654;6.596;2023-08-12T03:28:44;99821.66;;;22.41;43.42
74881;BME280;63427;49.654;6.596;2023-08-12T03:31:09;99814.46;;;22.35;46.18
74881;BME280;63427;49.654;6.596;2023-08-12T03:33:34;99813.09;;;22.22;43.73
74881;BME280;63427;49.654;6.596;2023-08-12T03:36:00;99809.84;;;22.21;45.80
74881;BME280;63427;49.654;6.596;2023-08-12T03:38:25;99800.22;;;22.25;45.18
74881;BME280;63427;49.654;6.596;2023-08-12T03:40:50;99805.17;;;22.28;45.90
74881;BME280;63427;49.654;6.596;2023-08-12T03:43:15;99810.33;;;22.31;45.03
74881;BME280;63427;49.654;6.596;2023-08-12T03:45:41;99806.14;;;22.21;44.42
74881;BME280;63427;49.654;6.596;2023-08-12T03:48:06;99805.79;;;22.06;45.53
74881;BME280;63427;49.654;6.596;2023-08-12T03:50:33;99811.25;;;22.24;45.24
74881;BME280;63427;49.654;6.596;2023-08-12T03:52:57;99814.37;;;22.28;44.71
74881;BME280;63427;49.654;6.596;2023-08-12T03:55:22;99819.46;;;22.43;43.74
74881;BME280;63427;49.654;6.596;2023-08-12T03:57:47;99814.37;;;21.94;43.99
74881;BME280;63427;49.654;6.596;2023-08-12T04:00:13;99808.30;;;22.41;44.69
74881;BME280;63427;49.654;6.596;2023-08-12T04:02:37;99805.56;;;22.34;46.38
74881;BME280;63427;49.654;6.596;2023-08-12T04:05:03;99806.64;;;22.19;46.48
74881;BME280;63427;49.654;6.596;2023-08-12T04:07:28;99801.34;;;22.46;46.66
74881;BME280;63427;49.654;6.596;2023-08-12T04:09:53;99799.95;;;22.47;46.66
74881;BME280;63427;49.654;6.596;2023-08-12T04:12:18;99798.91;;;22.45;46.30
74881;BME280;63427;49.654;6.596;2023-08-12T04:14:43;99798.79;;;22.51;45.78
74881;BME280;63427;49.654;6.596;2023-08-12T04:17:08;99796.47;;;22.56;44.14
74881;BME280;63427;49.654;6.596;2023-08-12T04:19:34;99800.49;;;22.31;44.56
74881;BME280;63427;49.654;6.596;2023-08-12T04:21:59;99798.15;;;22.17;44.67
74881;BME280;63427;49.654;6.596;2023-08-12T04:24:24;99800.24;;;22.49;45.31
74881;BME280;63427;49.654;6.596;2023-08-12T04:26:49;99800.69;;;22.40;46.20
74881;BME280;63427;49.654;6.596;2023-08-12T04:29:14;99801.19;;;22.34;46.52
74881;BME280;63427;49.654;6.596;2023-08-12T04:31:40;99805.45;;;22.44;46.35
74881;BME280;63427;49.654;6.596;2023-08-12T04:34:05;99803.99;;;22.73;45.48
74881;BME280;63427;49.654;6.596;2023-08-12T04:36:30;99800.91;;;22.75;44.04
74881;BME280;63427;49.654;6.596;2023-08-12T04:38:55;99800.89;;;22.59;44.80
74881;BME280;63427;49.654;6.596;2023-08-12T04:41:20;99800.20;;;22.54;45.46
74881;BME280;63427;49.654;6.596;2023-08-12T04:43:46;99803.63;;;22.47;46.22
74881;BME280;63427;49.654;6.596;2023-08-12T04:46:11;99814.99;;;22.53;45.31
74881;BME280;63427;49.654;6.596;2023-08-12T04:48:36;99822.04;;;22.85;44.13
74881;BME280;63427;49.654;6.596;2023-08-12T04:51:01;99821.65;;;22.69;45.01
74881;BME280;63427;49.654;6.596;2023-08-12T04:53:26;99821.24;;;22.71;44.90
74881;BME280;63427;49.654;6.596;2023-08-12T04:55:51;99812.42;;;22.68;45.55
74881;BME280;63427;49.654;6.596;2023-08-12T04:58:17;99804.71;;;22.69;45.85
74881;BME280;63427;49.654;6.596;2023-08-12T05:00:42;99805.26;;;22.72;46.79
74881;BME280;63427;49.654;6.596;2023-08-12T05:03:07;99806.27;;;22.73;47.10
74881;BME280;63427;49.654;6.596;2023-08-12T05:05:33;99815.35;;;22.78;46.70
74881;BME280;63427;49.654;6.596;2023-08-12T05:07:58;99813.99;;;22.85;45.98
74881;BME280;63427;49.654;6.596;2023-08-12T05:10:23;99813.85;;;23.02;45.37
74881;BME280;63427;49.654;6.596;2023-08-12T05:12:49;99822.43;;;22.90;44.60
74881;BME280;63427;49.654;6.596;2023-08-12T05:15:14;99823.94;;;23.03;44.61
74881;BME280;63427;49.654;6.596;2023-08-12T05:17:39;99829.04;;;22.73;45.36
74881;BME280;63427;49.654;6.596;2023-08-12T05:20:05;99828.65;;;22.79;45.08
74881;BME280;63427;49.654;6.596;2023-08-12T05:22:29;99831.05;;;22.97;46.40
74881;BME280;63427;49.654;6.596;2023-08-12T05:24:56;99827.51;;;23.12;46.05
74881;BME280;63427;49.654;6.596;2023-08-12T05:27:20;99828.19;;;23.00;46.76
74881;BME280;63427;49.654;6.596;2023-08-12T05:29:45;99827.20;;;23.06;45.93
74881;BME280;63427;49.654;6.596;2023-08-12T05:32:10;99823.45;;;23.02;46.49
74881;BME280;63427;49.654;6.596;2023-08-12T05:34:35;99816.59;;;22.86;46.79
74881;BME280;63427;49.654;6.596;2023-08-12T05:37:01;99811.99;;;23.12;45.96
74881;BME280;63427;49.654;6.596;2023-08-12T05:39:26;99812.95;;;23.24;45.91
74881;BME280;63427;49.654;6.596;2023-08-12T05:41:52;99814.81;;;23.27;46.61
74881;BME280;63427;49.654;6.596;2023-08-12T05:44:17;99815.68;;;22.69;46.85
74881;BME280;63427;49.654;6.596;2023-08-12T05:46:42;99811.92;;;23.13;46.64
74881;BME280;63427;49.654;6.596;2023-08-12T05:49:07;99805.60;;;23.52;45.62
74881;BME280;63427;49.654;6.596;2023-08-12T05:51:32;99802.61;;;23.60;46.35
74881;BME280;63427;49.654;6.596;2023-08-12T05:53:58;99802.00;;;23.06;46.70
74881;BME280;63427;49.654;6.596;2023-08-12T05:56:23;99810.27;;;23.44;46.58
74881;BME280;63427;49.654;6.596;2023-08-12T05:58:48;99813.09;;;23.14;45.50
74881;BME280;63427;49.654;6.596;2023-08-12T06:01:13;99815.76;;;23.29;44.83
74881;BME280;63427;49.654;6.596;2023-08-12T06:03:38;99816.91;;;23.47;44.96
74881;BME280;63427;49.654;6.596;2023-08-12T06:06:03;99821.89;;;23.58;44.83
74881;BME280;63427;49.654;6.596;2023-08-12T06:08:28;99832.68;;;23.65;44.96
74881;BME280;63427;49.654;6.596;2023-08-12T06:10:53;99840.75;;;23.67;45.21
74881;BME280;63427;49.654;6.596;2023-08-12T06:13:18;99845.96;;;23.70;44.85
74881;BME280;63427;49.654;6.596;2023-08-12T06:15:44;99845.86;;;23.79;44.91
74881;BME280;63427;49.654;6.596;2023-08-12T06:18:09;99851.88;;;23.69;45.67
74881;BME280;63427;49.654;6.596;2023-08-12T06:20:35;99847.23;;;23.81;44.83
74881;BME280;63427;49.654;6.596;2023-08-12T06:23:00;99845.17;;;23.92;45.77
74881;BME280;63427;49.654;6.596;2023-08-12T06:25:24;99846.55;;;24.09;45.47
74881;BME280;63427;49.654;6.596;2023-08-12T06:27:50;99846.74;;;24.22;45.75
74881;BME280;63427;49.654;6.596;2023-08-12T06:30:15;99852.70;;;24.08;45.04
74881;BME280;63427;49.654;6.596;2023-08-12T06:32:40;99842.69;;;24.34;45.95
74881;BME280;63427;49.654;6.596;2023-08-12T06:35:06;99841.30;;;24.28;45.56
74881;BME280;63427;49.654;6.596;2023-08-12T06:37:31;99844.87;;;24.33;44.85
74881;BME280;63427;49.654;6.596;2023-08-12T06:39:56;99847.59;;;24.50;45.63
74881;BME280;63427;49.654;6.596;2023-08-12T06:42:21;99854.28;;;24.29;45.08
74881;BME280;63427;49.654;6.596;2023-08-12T06:44:49;99845.74;;;24.64;45.19
74881;BME280;63427;49.654;6.596;2023-08-12T06:47:11;99845.54;;;24.87;45.40
74881;BME280;63427;49.654;6.596;2023-08-12T06:49:36;99847.67;;;24.34;45.02
74881;BME280;63427;49.654;6.596;2023-08-12T06:52:01;99852.74;;;24.75;44.82
74881;BME280;63427;49.654;6.596;2023-08-12T06:54:26;99853.28;;;25.18;44.76
74881;BME280;63427;49.654;6.596;2023-08-12T06:56:52;99852.06;;;24.72;44.52
74881;BME280;63427;49.654;6.596;2023-08-12T06:59:17;99841.31;;;24.91;44.01
74881;BME280;63427;49.654;6.596;2023-08-12T07:01:42;99836.47;;;25.13;43.75
74881;BME280;63427;49.654;6.596;2023-08-12T07:04:07;99842.73;;;24.76;44.75
74881;BME280;63427;49.654;6.596;2023-08-12T07:06:32;99841.63;;;24.36;45.09
74881;BME280;63427;49.654;6.596;2023-08-12T07:08:57;99835.56;;;24.88;44.93
74881;BME280;63427;49.654;6.596;2023-08-12T07:11:22;99823.17;;;24.99;44.04
74881;BME280;63427;49.654;6.596;2023-08-12T07:13:47;99823.58;;;25.17;43.98
74881;BME280;63427;49.654;6.596;2023-08-12T07:16:13;99824.88;;;25.06;43.70
74881;BME280;63427;49.654;6.596;2023-08-12T07:18:38;99825.54;;;25.32;43.54
74881;BME280;63427;49.654;6.596;2023-08-12T07:21:03;99827.53;;;25.32;43.28
74881;BME280;63427;49.654;6.596;2023-08-12T07:23:29;99832.89;;;25.46;44.13
74881;BME280;63427;49.654;6.596;2023-08-12T07:25:54;99832.30;;;25.36;42.89
74881;BME280;63427;49.654;6.596;2023-08-12T07:28:19;99829.90;;;25.45;42.93
74881;BME280;63427;49.654;6.596;2023-08-12T07:30:44;99831.07;;;25.41;43.13
74881;BME280;63427;49.654;6.596;2023-08-12T07:33:09;99833.32;;;25.53;43.36
74881;BME280;63427;49.654;6.596;2023-08-12T07:35:34;99830.04;;;25.94;42.70
74881;BME280;63427;49.654;6.596;2023-08-12T07:37:59;99822.18;;;25.72;41.74
74881;BME280;63427;49.654;6.596;2023-08-12T07:40:24;99814.33;;;25.83;42.96
74881;BME280;63427;49.654;6.596;2023-08-12T07:42:49;99820.75;;;26.00;41.63
74881;BME280;63427;49.654;6.596;2023-08-12T07:45:14;99821.89;;;26.05;41.76
74881;BME280;63427;49.654;6.596;2023-08-12T07:47:39;99822.72;;;26.14;41.78
74881;BME280;63427;49.654;6.596;2023-08-12T07:50:05;99824.27;;;26.08;41.84
74881;BME280;63427;49.654;6.596;2023-08-12T07:52:29;99825.55;;;26.12;40.85
74881;BME280;63427;49.654;6.596;2023-08-12T07:54:55;99828.35;;;26.31;41.29
74881;BME280;63427;49.654;6.596;2023-08-12T07:57:20;99827.42;;;26.49;40.26
74881;BME280;63427;49.654;6.596;2023-08-12T07:59:45;99826.06;;;26.22;41.11
74881;BME280;63427;49.654;6.596;2023-08-12T08:02:11;99825.32;;;26.53;40.13
74881;BME280;63427;49.654;6.596;2023-08-12T08:04:37;99826.98;;;26.39;41.04
74881;BME280;63427;49.654;6.596;2023-08-12T08:07:03;99823.16;;;26.53;39.32
74881;BME280;63427;49.654;6.596;2023-08-12T08:09:29;99815.59;;;26.32;40.52
74881;BME280;63427;49.654;6.596;2023-08-12T08:11:54;99807.68;;;26.70;40.96
74881;BME280;63427;49.654;6.596;2023-08-12T08:14:20;99798.51;;;26.65;40.35
74881;BME280;63427;49.654;6.596;2023-08-12T08:16:46;99800.81;;;27.01;39.81
74881;BME280;63427;49.654;6.596;2023-08-12T08:19:12;99805.15;;;27.10;40.16
74881;BME280;63427;49.654;6.596;2023-08-12T08:21:38;99816.54;;;27.13;39.51
74881;BME280;63427;49.654;6.596;2023-08-12T08:24:04;99815.22;;;27.29;39.65
74881;BME280;63427;49.654;6.596;2023-08-12T08:26:29;99801.33;;;26.90;39.87
74881;BME280;63427;49.654;6.596;2023-08-12T08:28:55;99800.79;;;27.27;38.93
74881;BME280;63427;49.654;6.596;2023-08-12T08:31:21;99806.02;;;27.41;38.86
74881;BME280;63427;49.654;6.596;2023-08-12T08:33:46;99811.87;;;27.14;38.58
74881;BME280;63427;49.654;6.596;2023-08-12T08:36:12;99816.48;;;27.28;39.03
74881;BME280;63427;49.654;6.596;2023-08-12T08:38:38;99827.01;;;27.52;38.50
74881;BME280;63427;49.654;6.596;2023-08-12T08:41:05;99816.54;;;27.28;39.50
74881;BME280;63427;49.654;6.596;2023-08-12T08:43:30;99809.97;;;27.69;39.36
74881;BME280;63427;49.654;6.596;2023-08-12T08:45:56;99830.50;;;27.64;38.33
74881;BME280;63427;49.654;6.596;2023-08-12T08:48:21;99834.49;;;28.19;38.24
74881;BME280;63427;49.654;6.596;2023-08-12T08:50:48;99834.61;;;27.91;39.11
74881;BME280;63427;49.654;6.596;2023-08-12T08:53:14;99833.08;;;27.83;38.78
74881;BME280;63427;49.654;6.596;2023-08-12T08:55:40;99828.12;;;27.79;38.24
74881;BME280;63427;49.654;6.596;2023-08-12T08:58:04;99837.84;;;28.11;38.83
74881;BME280;63427;49.654;6.596;2023-08-12T09:00:30;99838.36;;;27.59;38.66
74881;BME280;63427;49.654;6.596;2023-08-12T09:05:34;99846.95;;;28.24;37.57
74881;BME280;63427;49.654;6.596;2023-08-12T09:07:49;99842.18;;;28.06;37.72
74881;BME280;63427;49.654;6.596;2023-08-12T09:10:14;99849.82;;;28.58;36.64
74881;BME280;63427;49.654;6.596;2023-08-12T09:12:39;99857.08;;;28.75;36.07
74881;BME280;63427;49.654;6.596;2023-08-12T09:15:05;99861.30;;;27.38;38.31
74881;BME280;63427;49.654;6.596;2023-08-12T09:17:31;99861.13;;;28.12;37.82
74881;BME280;63427;49.654;6.596;2023-08-12T09:19:56;99868.17;;;28.44;37.29
74881;BME280;63427;49.654;6.596;2023-08-12T09:22:24;99868.44;;;28.88;36.71
74881;BME280;63427;49.654;6.596;2023-08-12T09:24:50;99864.80;;;28.41;36.71
74881;BME280;63427;49.654;6.596;2023-08-12T09:27:17;99869.69;;;29.16;35.71
74881;BME280;63427;49.654;6.596;2023-08-12T09:29:39;99868.38;;;29.16;35.82
74881;BME280;63427;49.654;6.596;2023-08-12T09:32:06;99866.41;;;29.13;35.10
74881;BME280;63427;49.654;6.596;2023-08-12T09:34:31;99857.41;;;29.35;35.37
74881;BME280;63427;49.654;6.596;2023-08-12T09:36:56;99849.25;;;29.12;35.00
74881;BME280;63427;49.654;6.596;2023-08-12T09:39:22;99852.77;;;29.29;34.92
74881;BME280;63427;49.654;6.596;2023-08-12T09:41:49;99855.96;;;29.42;35.74
74881;BME280;63427;49.654;6.596;2023-08-12T09:44:13;99857.52;;;29.22;36.41
74881;BME280;63427;49.654;6.596;2023-08-12T09:46:39;99853.83;;;28.36;37.34
74881;BME280;63427;49.654;6.596;2023-08-12T09:49:07;99842.03;;;28.58;37.10
74881;BME280;63427;49.654;6.596;2023-08-12T09:51:34;99837.18;;;28.60;37.11
74881;BME280;63427;49.654;6.596;2023-08-12T09:53:56;99837.96;;;28.54;36.78
74881;BME280;63427;49.654;6.596;2023-08-12T09:56:23;99839.45;;;28.81;36.28
74881;BME280;63427;49.654;6.596;2023-08-12T09:58:49;99834.45;;;28.69;36.64
74881;BME280;63427;49.654;6.596;2023-08-12T10:01:16;99843.84;;;28.33;36.27
74881;BME280;63427;49.654;6.596;2023-08-12T10:03:40;99845.79;;;27.99;37.08
74881;BME280;63427;49.654;6.596;2023-08-12T10:06:05;99839.79;;;28.05;37.75
74881;BME280;63427;49.654;6.596;2023-08-12T10:08:31;99835.16;;;28.02;38.02
74881;BME280;63427;49.654;6.596;2023-08-12T10:10:57;99819.65;;;27.46;38.99
74881;BME280;63427;49.654;6.596;2023-08-12T10:13:23;99800.95;;;27.17;39.78
74881;BME280;63427;49.654;6.596;2023-08-12T10:15:49;99791.74;;;27.57;38.83
74881;BME280;63427;49.654;6.596;2023-08-12T10:18:15;99794.63;;;27.61;39.17
74881;BME280;63427;49.654;6.596;2023-08-12T10:20:40;99793.55;;;27.78;39.35
74881;BME280;63427;49.654;6.596;2023-08-12T10:23:07;99766.09;;;27.46;39.16
74881;BME280;63427;49.654;6.596;2023-08-12T10:25:32;99768.50;;;27.92;39.31
74881;BME280;63427;49.654;6.596;2023-08-12T10:27:57;99777.63;;;27.51;38.96
74881;BME280;63427;49.654;6.596;2023-08-12T10:30:23;99774.52;;;28.15;38.74
74881;BME280;63427;49.654;6.596;2023-08-12T10:32:49;99766.64;;;28.04;39.45
74881;BME280;63427;49.654;6.596;2023-08-12T10:35:14;99783.93;;;28.00;38.38
74881;BME280;63427;49.654;6.596;2023-08-12T10:37:40;99789.55;;;28.37;39.24
74881;BME280;63427;49.654;6.596;2023-08-12T10:42:40;99791.93;;;28.28;36.59
74881;BME280;63427;49.654;6.596;2023-08-12T10:44:57;99779.23;;;29.04;36.82
74881;BME280;63427;49.654;6.596;2023-08-12T10:47:23;99774.31;;;29.52;38.11
74881;BME280;63427;49.654;6.596;2023-08-12T10:49:50;99789.50;;;29.20;37.20
74881;BME280;63427;49.654;6.596;2023-08-12T10:52:26;99789.29;;;30.24;37.33
74881;BME280;63427;49.654;6.596;2023-08-12T10:54:40;99794.53;;;29.11;37.82
74881;BME280;63427;49.654;6.596;2023-08-12T10:57:07;99787.91;;;29.34;37.15
74881;BME280;63427;49.654;6.596;2023-08-12T10:59:48;99802.09;;;28.44;36.61
74881;BME280;63427;49.654;6.596;2023-08-12T11:02:05;99808.61;;;28.69;36.89
74881;BME280;63427;49.654;6.596;2023-08-12T11:04:24;99802.96;;;29.70;35.53
74881;BME280;63427;49.654;6.596;2023-08-12T11:06:49;99797.32;;;30.77;34.94
74881;BME280;63427;49.654;6.596;2023-08-12T11:09:15;99804.08;;;29.57;34.45
74881;BME280;63427;49.654;6.596;2023-08-12T11:11:40;99802.52;;;31.01;32.42
74881;BME280;63427;49.654;6.596;2023-08-12T11:14:11;99797.53;;;30.84;30.52
74881;BME280;63427;49.654;6.596;2023-08-12T11:16:35;99794.36;;;31.72;30.08
74881;BME280;63427;49.654;6.596;2023-08-12T11:18:59;99789.79;;;31.77;29.65
74881;BME280;63427;49.654;6.596;2023-08-12T11:21:24;99798.88;;;31.69;29.13
74881;BME280;63427;49.654;6.596;2023-08-12T11:23:50;99788.26;;;30.83;28.01
74881;BME280;63427;49.654;6.596;2023-08-12T11:26:14;99791.73;;;31.31;29.04
74881;BME280;63427;49.654;6.596;2023-08-12T11:28:40;99797.62;;;30.05;29.28
74881;BME280;63427;49.654;6.596;2023-08-12T11:31:05;99797.17;;;31.24;28.31
74881;BME280;63427;49.654;6.596;2023-08-12T11:33:31;99793.54;;;31.43;27.90
74881;BME280;63427;49.654;6.596;2023-08-12T11:35:57;99791.18;;;32.22;27.12
74881;BME280;63427;49.654;6.596;2023-08-12T11:38:22;99794.36;;;33.06;26.23
74881;BME280;63427;49.654;6.596;2023-08-12T11:40:50;99787.28;;;32.72;25.39
74881;BME280;63427;49.654;6.596;2023-08-12T11:43:13;99780.82;;;33.11;25.30
74881;BME280;63427;49.654;6.596;2023-08-12T11:45:41;99773.45;;;33.30;25.07
74881;BME280;63427;49.654;6.596;2023-08-12T11:48:05;99771.28;;;32.95;26.10
74881;BME280;63427;49.654;6.596;2023-08-12T11:50:30;99779.91;;;32.75;25.82
74881;BME280;63427;49.654;6.596;2023-08-12T11:52:56;99778.79;;;33.43;25.65
74881;BME280;63427;49.654;6.596;2023-08-12T11:55:22;99776.05;;;33.44;25.03
74881;BME280;63427;49.654;6.596;2023-08-12T11:57:47;99768.56;;;33.63;25.80
74881;BME280;63427;49.654;6.596;2023-08-12T12:00:13;99772.78;;;33.65;25.56
74881;BME280;63427;49.654;6.596;2023-08-12T12:02:39;99776.39;;;33.57;26.21
74881;BME280;63427;49.654;6.596;2023-08-12T12:05:07;99773.39;;;33.62;25.46
74881;BME280;63427;49.654;6.596;2023-08-12T12:07:29;99774.58;;;32.81;25.81
74881;BME280;63427;49.654;6.596;2023-08-12T12:09:55;99770.33;;;32.77;26.51
74881;BME280;63427;49.654;6.596;2023-08-12T12:12:22;99771.93;;;32.76;25.58
74881;BME280;63427;49.654;6.596;2023-08-12T12:14:47;99775.59;;;32.45;25.71
74881;BME280;63427;49.654;6.596;2023-08-12T12:17:11;99773.61;;;32.47;26.26
74881;BME280;63427;49.654;6.596;2023-08-12T12:19:40;99774.46;;;32.39;26.53
74881;BME280;63427;49.654;6.596;2023-08-12T12:22:04;99779.92;;;32.63;26.80
74881;BME280;63427;49.654;6.596;2023-08-12T12:24:29;99785.00;;;32.76;26.63
74881;BME280;63427;49.654;6.596;2023-08-12T12:26:54;99784.65;;;32.31;27.04
74881;BME280;63427;49.654;6.596;2023-08-12T12:29:19;99787.96;;;32.51;26.52
74881;BME280;63427;49.654;6.596;2023-08-12T12:31:45;99786.78;;;32.19;26.21
74881;BME280;63427;49.654;6.596;2023-08-12T12:34:10;99789.12;;;32.29;26.41
74881;BME280;63427;49.654;6.596;2023-08-12T12:36:37;99792.19;;;32.15;26.70
74881;BME280;63427;49.654;6.596;2023-08-12T12:39:02;99800.86;;;31.99;27.47
74881;BME280;63427;49.654;6.596;2023-08-12T12:41:27;99802.45;;;31.38;28.37
74881;BME280;63427;49.654;6.596;2023-08-12T12:43:53;99805.93;;;31.63;28.25
74881;BME280;63427;49.654;6.596;2023-08-12T12:46:19;99798.81;;;31.33;28.42
74881;BME280;63427;49.654;6.596;2023-08-12T12:48:44;99794.02;;;31.61;28.34
74881;BME280;63427;49.654;6.596;2023-08-12T12:51:10;99804.98;;;31.07;28.48
74881;BME280;63427;49.654;6.596;2023-08-12T12:53:35;99796.57;;;29.96;29.78
74881;BME280;63427;49.654;6.596;2023-08-12T12:56:01;99801.83;;;29.99;30.17